createdAt,value
2024-05-09T00:02:43.078Z,101780.75
2024-05-09T00:06:44.673Z,101774.72
2024-05-09T00:10:46.402Z,101757.41
2024-05-09T00:14:48.258Z,101760.91
2024-05-09T00:18:49.946Z,101751.34
2024-05-09T00:22:51.900Z,101768.78
2024-05-09T00:26:53.512Z,101765.63
2024-05-09T00:30:55.152Z,101774.38
2024-05-09T00:34:56.828Z,101770.84
2024-05-09T00:38:58.511Z,101775.53
2024-05-09T00:43:00.057Z,101756.28
2024-05-09T00:47:01.672Z,101754.88
2024-05-09T00:51:03.808Z,101758.53
2024-05-09T00:55:07.645Z,101774.28
2024-05-09T00:59:09.404Z,101757.06
2024-05-09T01:03:13.172Z,101776.19
2024-05-09T01:07:16.060Z,101766.69
2024-05-09T01:11:18.490Z,101771.16
2024-05-09T01:15:20.197Z,101766.97
2024-05-09T01:19:30.362Z,101756.44
2024-05-09T01:23:32.215Z,101711.66
2024-05-09T01:27:33.896Z,101772.28
2024-05-09T01:31:35.579Z,101768.91
2024-05-09T01:35:37.449Z,101766.34
2024-05-09T01:39:39.238Z,101766.56
2024-05-09T01:43:40.791Z,101768.41
2024-05-09T01:47:42.742Z,101761.69
2024-05-09T01:51:44.478Z,101769.59
2024-05-09T01:55:46.202Z,101756.63
2024-05-09T01:59:47.839Z,101771.44
2024-05-09T02:03:49.926Z,101769.81
2024-05-09T02:07:51.632Z,101754.50
2024-05-09T02:11:53.358Z,101773.69
2024-05-09T02:15:56.067Z,101768.53
2024-05-09T02:19:57.753Z,101762.44
2024-05-09T02:23:59.515Z,101756.41
2024-05-09T02:28:01.338Z,101755.56
2024-05-09T02:32:03.069Z,101759.09
2024-05-09T02:36:05.620Z,101762.78
2024-05-09T02:40:11.704Z,101762.06
2024-05-09T02:44:16.353Z,101738.06
2024-05-09T02:48:18.125Z,101705.28
2024-05-09T02:52:19.887Z,101765.00
2024-05-09T02:56:21.532Z,101765.06
2024-05-09T03:00:29.722Z,101769.63
2024-05-09T03:04:38.970Z,101767.03
2024-05-09T03:08:44.630Z,101767.09
2024-05-09T03:12:46.254Z,101762.81
2024-05-09T03:16:47.910Z,101763.84
2024-05-09T03:20:49.641Z,101758.13
2024-05-09T03:24:51.374Z,101766.78
2024-05-09T03:28:52.940Z,101763.28
2024-05-09T03:32:55.242Z,101751.22
2024-05-09T03:36:56.920Z,101762.66
2024-05-09T03:40:58.552Z,101764.50
2024-05-09T03:45:00.192Z,101762.91
2024-05-09T03:49:01.880Z,101761.16
2024-05-09T03:53:03.859Z,101752.84
2024-05-09T03:57:05.510Z,101755.25
2024-05-09T04:01:07.122Z,101750.88
2024-05-09T04:05:09.402Z,101766.94
2024-05-09T04:09:10.977Z,101763.56
2024-05-09T04:13:12.859Z,101747.88
2024-05-09T04:17:14.546Z,101768.75
2024-05-09T04:21:16.186Z,101763.00
2024-05-09T04:25:17.795Z,101765.59
2024-05-09T04:29:19.427Z,101776.09
2024-05-09T04:33:21.177Z,101781.44
2024-05-09T04:37:23.044Z,101740.81
2024-05-09T04:41:24.666Z,101778.06
2024-05-09T04:45:26.287Z,101779.97
2024-05-09T04:49:27.952Z,101786.13
2024-05-09T04:53:29.690Z,101780.03
2024-05-09T04:57:31.270Z,101797.72
2024-05-09T05:01:32.900Z,101794.34
2024-05-09T05:05:34.673Z,101798.69
2024-05-09T05:09:36.428Z,101797.88
2024-05-09T05:13:40.847Z,101788.34
2024-05-09T05:17:43.365Z,101792.75
2024-05-09T05:21:45.108Z,101756.44
2024-05-09T05:25:48.523Z,101795.41
2024-05-09T05:29:50.377Z,101801.56
2024-05-09T05:33:52.095Z,101800.69
2024-05-09T05:37:53.766Z,101760.00
2024-05-09T05:41:55.374Z,101805.22
2024-05-09T05:45:56.950Z,101811.38
2024-05-09T05:49:58.536Z,101812.19
2024-05-09T05:54:00.135Z,101813.22
2024-05-09T05:58:02.583Z,101813.22
2024-05-09T06:02:04.419Z,101808.81
2024-05-09T06:06:07.282Z,101808.81
2024-05-09T06:10:17.247Z,101811.44
2024-05-09T06:14:23.201Z,101799.19
2024-05-09T06:18:25.354Z,101809.72
2024-05-09T06:22:27.043Z,101798.34
2024-05-09T06:26:28.757Z,101812.38
2024-05-09T06:30:38.388Z,101814.06
2024-05-09T06:34:43.135Z,101798.34
2024-05-09T06:38:44.954Z,101811.44
2024-05-09T06:42:46.663Z,101802.63
2024-05-09T06:46:48.325Z,101810.53
2024-05-09T06:50:50.566Z,101809.81
2024-05-09T06:54:52.359Z,101803.53
2024-05-09T06:58:54.460Z,101812.28
2024-05-09T07:02:56.258Z,101803.63
2024-05-09T07:06:58.026Z,101806.84
2024-05-09T07:11:00.694Z,101765.31
2024-05-09T07:15:02.348Z,101814.75
2024-05-09T07:19:04.190Z,101807.84
2024-05-09T07:23:09.100Z,101805.28
2024-05-09T07:27:10.762Z,101802.56
2024-05-09T07:31:12.421Z,101804.31
2024-05-09T07:35:14.240Z,101810.28
2024-05-09T07:39:15.909Z,101807.66
2024-05-09T07:43:17.591Z,101805.88
2024-05-09T07:48:29.094Z,101809.34
2024-05-09T07:55:45.431Z,101798.69
2024-05-09T07:59:47.129Z,101786.34
2024-05-09T08:03:48.982Z,101786.25
2024-05-09T08:07:50.975Z,101784.41
2024-05-09T08:11:52.882Z,101782.59
2024-05-09T08:15:54.612Z,101780.84
2024-05-09T08:19:56.967Z,101769.66
2024-05-09T08:23:58.526Z,101780.72
2024-05-09T08:28:00.201Z,101782.34
2024-05-09T08:32:02.082Z,101782.44
2024-05-09T08:36:03.901Z,101795.41
2024-05-09T08:40:08.446Z,101778.84
2024-05-09T08:44:10.269Z,101781.31
2024-05-09T08:48:14.141Z,101783.78
2024-05-09T08:52:17.832Z,101793.34
2024-05-09T08:56:20.677Z,101790.59
2024-05-09T09:00:33.403Z,101781.75
2024-05-09T09:04:40.461Z,101779.84
2024-05-09T09:08:42.471Z,101778.03
2024-05-09T09:12:44.559Z,101775.28
2024-05-09T09:16:46.376Z,101772.59
2024-05-09T09:20:47.980Z,101772.44
2024-05-09T09:24:49.604Z,101763.00
2024-05-09T09:28:51.802Z,101768.91
2024-05-09T09:32:55.155Z,101774.94
2024-05-09T09:37:03.583Z,101778.22
2024-05-09T09:41:07.638Z,101773.81
2024-05-09T09:45:10.795Z,101767.59
2024-05-09T09:49:12.711Z,101770.91
2024-05-09T09:53:16.060Z,101767.16
2024-05-09T09:57:19.511Z,101766.19
2024-05-09T10:01:21.352Z,101753.88
2024-05-09T10:05:23.456Z,101760.66
2024-05-09T10:09:26.010Z,101744.88
2024-05-09T10:13:34.967Z,101760.53
2024-05-09T10:17:42.385Z,101758.63
2024-05-09T10:21:47.258Z,101762.06
2024-05-09T10:26:05.507Z,101718.31
2024-05-09T10:30:14.392Z,101744.16
2024-05-09T10:34:23.997Z,101736.06
2024-05-09T10:38:26.349Z,101728.88
2024-05-09T10:42:29.123Z,101688.91
2024-05-09T10:46:30.960Z,101713.88
2024-05-09T10:50:34.464Z,101717.91
2024-05-09T10:54:39.673Z,101717.06
2024-05-09T10:58:41.858Z,101701.31
2024-05-09T11:02:44.175Z,101718.47
2024-05-09T11:06:47.037Z,101697.31
2024-05-09T11:10:54.160Z,101706.75
2024-05-09T11:14:55.884Z,101702.19
2024-05-09T11:18:58.940Z,101692.34
2024-05-09T11:23:05.204Z,101683.63
2024-05-09T11:27:06.900Z,101691.22
2024-05-09T11:31:10.087Z,101683.03
2024-05-09T11:35:12.433Z,101672.28
2024-05-09T11:39:14.732Z,101674.81
2024-05-09T11:43:16.805Z,101665.16
2024-05-09T11:47:18.675Z,101669.47
2024-05-09T11:51:20.302Z,101662.91
2024-05-09T11:55:26.734Z,101669.78
2024-05-09T11:59:30.378Z,101660.00
2024-05-09T12:03:32.296Z,101659.84
2024-05-09T12:07:34.164Z,101655.28
2024-05-09T12:11:36.153Z,101659.59
2024-05-09T12:15:38.924Z,101655.00
2024-05-09T12:19:41.095Z,101649.66
2024-05-09T12:23:42.826Z,101639.06
2024-05-09T12:27:44.568Z,101636.28
2024-05-09T12:31:46.623Z,101608.44
2024-05-09T12:35:50.732Z,101642.78
2024-05-09T12:39:52.772Z,101617.56
2024-05-09T12:43:54.359Z,101637.19
2024-05-09T12:47:56.143Z,101628.19
2024-05-09T12:51:57.890Z,101635.09
2024-05-09T12:56:02.373Z,101632.38
2024-05-09T13:00:09.297Z,101616.63
2024-05-09T13:04:13.274Z,101607.59
2024-05-09T13:08:15.479Z,101599.78
2024-05-09T13:12:17.240Z,101606.38
2024-05-09T13:16:19.040Z,101600.84
2024-05-09T13:20:29.170Z,101577.38
2024-05-09T13:24:34.784Z,101606.81
2024-05-09T13:28:36.450Z,101594.63
2024-05-09T13:32:38.139Z,101589.78
2024-05-09T13:36:39.926Z,101585.28
2024-05-09T13:40:41.857Z,101586.94
2024-05-09T13:44:43.649Z,101581.56
2024-05-09T13:48:45.494Z,101572.75
2024-05-09T13:52:47.203Z,101564.66
2024-05-09T13:56:49.283Z,101531.66
2024-05-09T14:00:51.138Z,101563.47
2024-05-09T14:04:52.905Z,101562.47
2024-05-09T14:08:54.611Z,101561.47
2024-05-09T14:12:56.321Z,101548.22
2024-05-09T14:16:58.180Z,101548.09
2024-05-09T14:20:59.841Z,101540.88
2024-05-09T14:25:01.471Z,101521.69
2024-05-09T14:29:03.124Z,101527.41
2024-05-09T14:33:06.216Z,101499.69
2024-05-09T14:37:09.279Z,101516.63
2024-05-09T14:41:13.214Z,101513.84
2024-05-09T14:45:15.006Z,101503.16
2024-05-09T14:49:17.348Z,101503.09
2024-05-09T14:53:19.364Z,101489.81
2024-05-09T14:57:21.122Z,101496.72
2024-05-09T15:01:24.042Z,101491.25
2024-05-09T15:05:25.837Z,101483.38
2024-05-09T15:09:34.727Z,101473.78
2024-05-09T15:13:36.597Z,101482.09
2024-05-09T15:17:39.240Z,101484.59
2024-05-09T15:21:40.913Z,101478.91
2024-05-09T15:25:44.607Z,101470.97
2024-05-09T15:29:46.355Z,101458.84
2024-05-09T15:33:48.111Z,101469.00
2024-05-09T15:37:49.921Z,101445.56
2024-05-09T15:41:56.467Z,101457.38
2024-05-09T15:45:58.087Z,101457.16
2024-05-09T15:50:00.089Z,101459.66
2024-05-09T15:54:01.819Z,101430.13
2024-05-09T15:58:04.786Z,101435.22
2024-05-09T16:02:07.797Z,101426.94
2024-05-09T16:06:09.699Z,101445.56
2024-05-09T16:10:16.148Z,101417.19
2024-05-09T16:14:22.215Z,101433.16
2024-05-09T16:18:23.988Z,101431.28
2024-05-09T16:22:25.722Z,101441.81
2024-05-09T16:26:27.536Z,101441.69
2024-05-09T16:30:34.790Z,101437.97
2024-05-09T16:34:38.513Z,101435.31
2024-05-09T16:38:41.429Z,101437.84
2024-05-09T16:42:43.086Z,101436.84
2024-05-09T16:46:44.847Z,101426.28
2024-05-09T16:50:46.433Z,101434.75
2024-05-09T16:54:48.023Z,101427.50
2024-05-09T16:58:49.886Z,101381.00
2024-05-09T17:02:54.262Z,101414.13
2024-05-09T17:06:56.526Z,101432.56
2024-05-09T17:10:58.512Z,101404.63
2024-05-09T17:15:00.460Z,101422.66
2024-05-09T17:19:02.230Z,101413.03
2024-05-09T17:23:05.861Z,101416.22
2024-05-09T17:27:08.838Z,101418.72
2024-05-09T17:31:10.992Z,101418.66
2024-05-09T17:35:12.769Z,101411.69
2024-05-09T17:39:14.424Z,101420.28
2024-05-09T17:43:16.134Z,101415.75
2024-05-09T17:47:17.983Z,101398.34
2024-05-09T17:51:19.965Z,101413.78
2024-05-09T17:55:21.726Z,101411.84
2024-05-09T17:59:23.328Z,101411.75
2024-05-09T18:03:25.004Z,101409.25
2024-05-09T18:07:27.317Z,101413.50
2024-05-09T18:11:28.992Z,101418.81
2024-05-09T18:15:30.825Z,101415.88
2024-05-09T18:19:32.610Z,101421.13
2024-05-09T18:23:34.880Z,101384.09
2024-05-09T18:27:36.645Z,101412.47
2024-05-09T18:31:38.283Z,101421.03
2024-05-09T18:35:42.865Z,101409.81
2024-05-09T18:39:44.521Z,101423.63
2024-05-09T18:43:50.228Z,101413.16
2024-05-09T18:47:53.241Z,101414.50
2024-05-09T18:51:55.021Z,101425.66
2024-05-09T18:55:57.588Z,101435.97
2024-05-09T18:59:59.772Z,101440.41
2024-05-09T19:04:01.591Z,101429.09
2024-05-09T19:08:03.615Z,101435.22
2024-05-09T19:12:06.342Z,101424.88
2024-05-09T19:16:08.096Z,101443.88
2024-05-09T19:20:20.508Z,101443.00
2024-05-09T19:24:29.877Z,101416.44
2024-05-09T19:28:31.488Z,101452.63
2024-05-09T19:32:33.152Z,101450.88
2024-05-09T19:36:35.382Z,101402.63
2024-05-09T19:40:37.188Z,101448.41
2024-05-09T19:44:38.926Z,101461.53
2024-05-09T19:48:41.024Z,101461.53
2024-05-09T19:52:43.118Z,101458.50
2024-05-09T19:56:45.347Z,101465.31
2024-05-09T20:00:47.816Z,101470.50
2024-05-09T20:04:50.714Z,101472.25
2024-05-09T20:08:57.081Z,101478.66
2024-05-09T20:12:58.859Z,101477.81
2024-05-09T20:17:01.306Z,101476.94
2024-05-09T20:21:03.036Z,101480.56
2024-05-09T20:25:05.592Z,101459.91
2024-05-09T20:29:07.224Z,101463.03
2024-05-09T20:33:09.876Z,101455.47
2024-05-09T20:37:12.098Z,101472.72
2024-05-09T20:41:13.728Z,101475.31
2024-05-09T20:45:15.486Z,101470.06
2024-05-09T20:49:17.664Z,101455.22
2024-05-09T20:53:19.454Z,101456.88
2024-05-09T20:57:21.075Z,101467.56
2024-05-09T21:01:22.766Z,101468.50
2024-05-09T21:05:24.445Z,101453.19
2024-05-09T21:09:27.956Z,101468.50
2024-05-09T21:13:29.577Z,101471.25
2024-05-09T21:17:31.292Z,101461.47
2024-05-09T21:21:39.329Z,101463.38
2024-05-09T21:25:41.061Z,101465.22
2024-05-09T21:29:42.644Z,101465.22
2024-05-09T21:33:44.383Z,101448.91
2024-05-09T21:37:46.147Z,101462.81
2024-05-09T21:41:47.723Z,101458.44
2024-05-09T21:45:49.358Z,101449.28
2024-05-09T21:49:51.024Z,101469.28
2024-05-09T21:53:52.610Z,101462.25
2024-05-09T21:57:54.202Z,101460.69
2024-05-09T22:01:56.079Z,101455.44
2024-05-09T22:05:57.762Z,101453.81
2024-05-09T22:09:59.461Z,101452.97
2024-05-09T22:14:01.079Z,101450.69
2024-05-09T22:18:02.902Z,101468.22
2024-05-09T22:22:04.861Z,101474.53
2024-05-09T22:26:06.463Z,101471.03
2024-05-09T22:30:11.926Z,101470.13
2024-05-09T22:34:19.253Z,101467.63
2024-05-09T22:38:20.968Z,101476.56
2024-05-09T22:42:22.537Z,101481.94
2024-05-09T22:46:24.192Z,101471.44
2024-05-09T22:50:27.216Z,101438.78
2024-05-09T22:54:34.212Z,101457.69
2024-05-09T22:58:35.840Z,101463.84
2024-05-09T23:02:38.009Z,101466.44
2024-05-09T23:06:42.746Z,101443.84
2024-05-09T23:10:44.456Z,101456.88
2024-05-09T23:14:46.763Z,101461.19
2024-05-09T23:18:48.567Z,101454.31
2024-05-09T23:22:50.479Z,101443.94
2024-05-09T23:26:52.153Z,101448.13
2024-05-09T23:30:53.733Z,101430.25
2024-05-09T23:34:55.463Z,101451.75
2024-05-09T23:38:57.118Z,101452.69
2024-05-09T23:42:58.832Z,101451.91
2024-05-09T23:47:00.548Z,101452.06
2024-05-09T23:51:02.229Z,101441.50
2024-05-09T23:55:04.262Z,101448.59
2024-05-09T23:59:06.316Z,101417.56
